createdAt,value
2023-10-26T00:00:39.586Z,96333.94
2023-10-26T00:03:06.728Z,96336.56
2023-10-26T00:05:33.809Z,96329.52
2023-10-26T00:08:00.966Z,96325.69
2023-10-26T00:10:28.021Z,96325.42
2023-10-26T00:12:55.024Z,96328.48
2023-10-26T00:15:22.204Z,96325.39
2023-10-26T00:17:49.622Z,96325.50
2023-10-26T00:20:16.664Z,96322.55
2023-10-26T00:22:43.696Z,96318.89
2023-10-26T00:25:10.719Z,96319.50
2023-10-26T00:27:42.132Z,96318.29
2023-10-26T00:30:12.029Z,96317.35
2023-10-26T00:32:39.299Z,96312.63
2023-10-26T00:35:06.910Z,96317.98
2023-10-26T00:37:34.033Z,96320.14
2023-10-26T00:40:01.058Z,96316.63
2023-10-26T00:42:28.316Z,96321.16
2023-10-26T00:44:58.243Z,96317.02
2023-10-26T00:47:27.260Z,96319.20
2023-10-26T00:49:55.792Z,96316.08
2023-10-26T00:52:24.271Z,96315.36
2023-10-26T00:54:52.763Z,96314.30
2023-10-26T00:57:22.709Z,96304.29
2023-10-26T00:59:51.579Z,96302.77
2023-10-26T01:02:20.146Z,96291.67
2023-10-26T01:04:47.580Z,96286.56
2023-10-26T01:07:15.004Z,96285.59
2023-10-26T01:09:42.295Z,96286.10
2023-10-26T01:12:09.890Z,96281.77
2023-10-26T01:14:38.047Z,96279.17
2023-10-26T01:17:05.075Z,96272.70
2023-10-26T01:19:43.260Z,96276.60
2023-10-26T01:22:11.223Z,96270.48
2023-10-26T01:24:39.049Z,96265.77
2023-10-26T01:27:06.586Z,96267.19
2023-10-26T01:29:34.633Z,96266.27
2023-10-26T01:32:01.761Z,96255.52
2023-10-26T01:34:29.063Z,96261.23
2023-10-26T01:36:56.163Z,96261.44
2023-10-26T01:39:23.411Z,96258.48
2023-10-26T01:41:50.580Z,96249.39
2023-10-26T01:44:17.626Z,96252.94
2023-10-26T01:46:44.929Z,96249.10
2023-10-26T01:49:12.024Z,96250.95
2023-10-26T01:51:40.760Z,96242.81
2023-10-26T01:54:09.165Z,96236.91
2023-10-26T01:56:38.495Z,96225.06
2023-10-26T01:59:06.163Z,96224.23
2023-10-26T02:01:33.523Z,96219.84
2023-10-26T02:04:00.522Z,96213.95
2023-10-26T02:06:27.716Z,96214.08
2023-10-26T02:08:54.883Z,96209.05
2023-10-26T02:11:22.052Z,96206.89
2023-10-26T02:13:49.159Z,96206.52
2023-10-26T02:16:17.935Z,96207.39
2023-10-26T02:18:46.094Z,96201.10
2023-10-26T02:21:13.764Z,96193.30
2023-10-26T02:23:42.336Z,96177.25
2023-10-26T02:26:09.410Z,96169.13
2023-10-26T02:28:36.506Z,96175.54
2023-10-26T02:31:03.755Z,96183.92
2023-10-26T02:33:30.902Z,96172.85
2023-10-26T02:35:58.002Z,96174.69
2023-10-26T02:38:25.060Z,96166.90
2023-10-26T02:40:52.723Z,96154.73
2023-10-26T02:43:20.578Z,96144.27
2023-10-26T02:45:48.076Z,96146.52
2023-10-26T02:48:16.139Z,96136.37
2023-10-26T02:50:43.732Z,96149.69
2023-10-26T02:53:10.703Z,96156.56
2023-10-26T02:55:37.710Z,96154.08
2023-10-26T02:58:04.693Z,96167.59
2023-10-26T03:00:31.737Z,96175.63
2023-10-26T03:02:59.044Z,96180.53
2023-10-26T03:05:26.227Z,96185.73
2023-10-26T03:07:53.612Z,96194.24
2023-10-26T03:10:21.550Z,96193.94
2023-10-26T03:12:50.069Z,96196.26
2023-10-26T03:15:18.233Z,96192.97
2023-10-26T03:17:45.779Z,96188.05
2023-10-26T03:20:13.116Z,96185.11
2023-10-26T03:22:40.077Z,96173.02
2023-10-26T03:25:08.616Z,96181.68
2023-10-26T03:27:35.972Z,96187.88
2023-10-26T03:30:06.387Z,96187.41
2023-10-26T03:32:33.382Z,96187.98
2023-10-26T03:35:01.004Z,96191.02
2023-10-26T03:37:28.798Z,96197.38
2023-10-26T03:39:56.923Z,96204.69
2023-10-26T03:42:23.941Z,96207.45
2023-10-26T03:44:51.350Z,96211.23
2023-10-26T03:47:20.091Z,96220.27
2023-10-26T03:49:47.498Z,96218.52
2023-10-26T03:52:15.377Z,96215.86
2023-10-26T03:54:43.508Z,96208.73
2023-10-26T03:57:10.615Z,96204.19
2023-10-26T03:59:37.644Z,96201.52
2023-10-26T04:02:04.885Z,96194.05
2023-10-26T04:04:32.042Z,96204.27
2023-10-26T04:06:58.991Z,96200.11
2023-10-26T04:09:26.015Z,96211.22
2023-10-26T04:11:53.209Z,96205.13
2023-10-26T04:14:20.211Z,96208.90
2023-10-26T04:16:51.059Z,96207.73
2023-10-26T04:19:18.179Z,96185.52
2023-10-26T04:21:45.617Z,96167.10
2023-10-26T04:24:12.707Z,96144.92
2023-10-26T04:26:39.708Z,96124.02
2023-10-26T04:29:08.102Z,96099.93
2023-10-26T04:31:35.750Z,96106.11
2023-10-26T04:34:02.950Z,96129.52
2023-10-26T04:36:30.451Z,96125.54
2023-10-26T04:38:57.588Z,96111.77
2023-10-26T04:41:24.646Z,96116.94
2023-10-26T04:43:51.638Z,96121.65
2023-10-26T04:46:18.809Z,96119.42
2023-10-26T04:48:45.913Z,96121.62
2023-10-26T04:51:13.116Z,96108.09
2023-10-26T04:53:40.132Z,96102.13
2023-10-26T04:56:07.441Z,96101.34
2023-10-26T04:58:34.351Z,96095.09
2023-10-26T05:01:01.385Z,96095.70
2023-10-26T05:03:28.512Z,96093.32
2023-10-26T05:05:55.557Z,96090.88
2023-10-26T05:08:22.549Z,96085.52
2023-10-26T05:10:49.548Z,96084.23
2023-10-26T05:13:16.570Z,96076.64
2023-10-26T05:15:46.711Z,96065.98
2023-10-26T05:18:13.749Z,96077.39
2023-10-26T05:20:41.163Z,96076.27
2023-10-26T05:23:09.587Z,96080.40
2023-10-26T05:25:37.732Z,96075.53
2023-10-26T05:28:04.937Z,96071.02
2023-10-26T05:30:32.099Z,96077.20
2023-10-26T05:32:59.131Z,96074.10
2023-10-26T05:35:26.186Z,96062.88
2023-10-26T05:37:53.289Z,96076.04
2023-10-26T05:40:20.398Z,96072.47
2023-10-26T05:42:47.479Z,96074.29
2023-10-26T05:45:14.591Z,96073.30
2023-10-26T05:47:41.655Z,96078.21
2023-10-26T05:50:09.200Z,96078.20
2023-10-26T05:52:36.273Z,96074.42
2023-10-26T05:55:04.102Z,96080.59
2023-10-26T05:57:31.067Z,96086.23
2023-10-26T05:59:58.255Z,96093.36
2023-10-26T06:02:25.381Z,96096.96
2023-10-26T06:04:52.430Z,96095.64
2023-10-26T06:07:19.442Z,96090.00
2023-10-26T06:09:46.356Z,96092.53
2023-10-26T06:12:13.686Z,96083.42
2023-10-26T06:14:40.719Z,96081.95
2023-10-26T06:17:07.761Z,96079.95
2023-10-26T06:19:35.329Z,96073.23
2023-10-26T06:22:02.640Z,96070.58
2023-10-26T06:24:29.948Z,96077.39
2023-10-26T06:26:56.975Z,96069.96
2023-10-26T06:29:23.887Z,96078.69
2023-10-26T06:31:50.966Z,96075.02
2023-10-26T06:34:17.998Z,96072.56
2023-10-26T06:36:44.968Z,96081.73
2023-10-26T06:39:11.951Z,96079.73
2023-10-26T06:41:38.967Z,96078.55
2023-10-26T06:44:06.069Z,96071.33
2023-10-26T06:46:33.091Z,96073.43
2023-10-26T06:49:01.520Z,96078.38
2023-10-26T06:51:31.668Z,96074.70
2023-10-26T06:53:58.619Z,96077.38
2023-10-26T06:56:25.634Z,96069.99
2023-10-26T06:58:52.572Z,96067.02
2023-10-26T07:01:21.101Z,96064.92
2023-10-26T07:03:50.565Z,96064.97
2023-10-26T07:06:18.326Z,96064.66
2023-10-26T07:08:45.492Z,96063.52
2023-10-26T07:11:12.513Z,96069.42
2023-10-26T07:13:39.963Z,96072.34
2023-10-26T07:16:07.406Z,96073.01
2023-10-26T07:18:35.079Z,96068.20
2023-10-26T07:21:08.970Z,96068.20
2023-10-26T07:23:36.398Z,96069.02
2023-10-26T07:26:04.281Z,96067.98
2023-10-26T07:28:31.461Z,96065.94
2023-10-26T07:30:58.521Z,96066.23
2023-10-26T07:33:26.045Z,96065.37
2023-10-26T07:35:56.585Z,96068.26
2023-10-26T07:38:35.115Z,96067.36
2023-10-26T07:41:07.165Z,96078.21
2023-10-26T07:43:36.059Z,96075.29
2023-10-26T07:46:03.119Z,96072.38
2023-10-26T07:48:32.246Z,96076.69
2023-10-26T07:50:59.529Z,96074.41
2023-10-26T07:53:29.571Z,96074.15
2023-10-26T07:55:59.232Z,96076.06
2023-10-26T07:58:31.371Z,96079.80
2023-10-26T08:00:58.377Z,96080.20
2023-10-26T08:03:25.614Z,96076.42
2023-10-26T08:05:56.886Z,96077.01
2023-10-26T08:08:24.107Z,96072.10
2023-10-26T08:10:51.116Z,96075.73
2023-10-26T08:13:18.424Z,96079.77
2023-10-26T08:16:05.570Z,96075.45
2023-10-26T08:18:32.904Z,96074.33
2023-10-26T08:21:00.258Z,96077.52
2023-10-26T08:23:31.043Z,96067.05
2023-10-26T08:25:58.237Z,96060.25
2023-10-26T08:28:25.354Z,96061.05
2023-10-26T08:30:55.214Z,96066.70
2023-10-26T08:33:22.281Z,96068.58
2023-10-26T08:35:50.943Z,96066.72
2023-10-26T08:38:18.414Z,96057.44
2023-10-26T08:40:52.622Z,96063.14
2023-10-26T08:43:20.543Z,96053.80
2023-10-26T08:45:48.710Z,96060.20
2023-10-26T08:48:17.635Z,96061.52
2023-10-26T08:50:46.711Z,96056.63
2023-10-26T08:53:14.636Z,96064.25
2023-10-26T08:55:43.295Z,96060.41
2023-10-26T08:58:10.621Z,96055.73
2023-10-26T09:00:42.318Z,96056.96
2023-10-26T09:03:09.647Z,96066.27
2023-10-26T09:05:56.922Z,96071.20
2023-10-26T09:08:24.807Z,96068.46
2023-10-26T09:10:54.929Z,96069.11
2023-10-26T09:13:29.809Z,96061.81
2023-10-26T09:15:59.946Z,96065.48
2023-10-26T09:18:28.438Z,96067.41
2023-10-26T09:21:09.656Z,96067.36
2023-10-26T09:23:38.600Z,96068.96
2023-10-26T09:26:11.319Z,96066.39
2023-10-26T09:28:54.961Z,96066.54
2023-10-26T09:31:23.370Z,96069.45
2023-10-26T09:33:51.203Z,96066.94
2023-10-26T09:36:19.895Z,96068.23
2023-10-26T09:38:49.075Z,96076.31
2023-10-26T09:41:18.094Z,96080.77
2023-10-26T09:43:45.133Z,96080.80
2023-10-26T09:46:13.352Z,96082.61
2023-10-26T09:48:42.355Z,96085.34
2023-10-26T09:51:11.950Z,96087.51
2023-10-26T09:53:42.460Z,96081.09
2023-10-26T09:56:18.680Z,96078.63
2023-10-26T09:58:46.219Z,96073.73
2023-10-26T10:01:37.339Z,96074.77
2023-10-26T10:04:05.856Z,96064.63
2023-10-26T10:06:51.778Z,96074.11
2023-10-26T10:09:26.696Z,96072.59
2023-10-26T10:12:15.138Z,96077.77
2023-10-26T10:14:48.178Z,96077.13
2023-10-26T10:17:20.297Z,96077.42
2023-10-26T10:19:48.809Z,96071.89
2023-10-26T10:22:40.463Z,96065.50
2023-10-26T10:25:11.803Z,96074.96
2023-10-26T10:27:40.081Z,96072.35
2023-10-26T10:30:10.392Z,96066.13
2023-10-26T10:32:43.956Z,96063.64
2023-10-26T10:35:12.721Z,96068.89
2023-10-26T10:37:40.121Z,96061.94
2023-10-26T10:40:18.019Z,96065.92
2023-10-26T10:42:50.051Z,96067.85
2023-10-26T10:45:18.203Z,96056.92
2023-10-26T10:47:48.348Z,96057.60
2023-10-26T10:50:19.298Z,96058.41
2023-10-26T10:52:51.086Z,96059.20
2023-10-26T10:55:27.659Z,96053.54
2023-10-26T10:57:59.495Z,96057.05
2023-10-26T11:00:46.906Z,96056.42
2023-10-26T11:03:20.325Z,96055.79
2023-10-26T11:05:47.613Z,96061.95
2023-10-26T11:08:14.638Z,96065.02
2023-10-26T11:10:48.644Z,96063.48
2023-10-26T11:13:23.476Z,96068.67
2023-10-26T11:15:50.592Z,96064.69
2023-10-26T11:18:17.767Z,96058.55
2023-10-26T11:20:48.993Z,96055.15
2023-10-26T11:23:23.626Z,96060.15
2023-10-26T11:25:50.632Z,96058.54
2023-10-26T11:28:34.021Z,96056.77
2023-10-26T11:31:01.453Z,96066.59
2023-10-26T11:33:31.319Z,96063.19
2023-10-26T11:35:59.087Z,96064.26
2023-10-26T11:38:27.648Z,96063.97
2023-10-26T11:40:55.138Z,96065.04
2023-10-26T11:43:32.739Z,96066.65
2023-10-26T11:46:04.754Z,96067.89
2023-10-26T11:48:35.202Z,96066.95
2023-10-26T11:51:07.906Z,96071.13
2023-10-26T11:53:36.827Z,96074.73
2023-10-26T11:56:04.037Z,96071.77
2023-10-26T11:58:32.049Z,96073.32
2023-10-26T12:00:59.012Z,96077.11
2023-10-26T12:03:27.423Z,96070.63
2023-10-26T12:05:56.028Z,96068.45
2023-10-26T12:08:24.366Z,96059.64
2023-10-26T12:10:51.346Z,96059.86
2023-10-26T12:13:18.501Z,96060.10
2023-10-26T12:15:45.468Z,96062.02
2023-10-26T12:18:12.751Z,96062.23
2023-10-26T12:20:39.760Z,96066.73
2023-10-26T12:23:06.851Z,96065.73
2023-10-26T12:25:33.854Z,96066.44
2023-10-26T12:28:21.646Z,96066.42
2023-10-26T12:30:51.287Z,96062.08
2023-10-26T12:33:18.561Z,96062.36
2023-10-26T12:35:47.701Z,96065.60
2023-10-26T12:38:15.046Z,96062.89
2023-10-26T12:40:42.120Z,96064.59
2023-10-26T12:43:09.132Z,96067.02
2023-10-26T12:45:37.419Z,96065.00
2023-10-26T12:48:05.264Z,96061.48
2023-10-26T12:50:32.378Z,96062.23
2023-10-26T12:52:59.452Z,96063.96
2023-10-26T12:55:26.514Z,96078.18
2023-10-26T12:57:54.197Z,96077.69
2023-10-26T13:00:22.389Z,96075.70
2023-10-26T13:02:49.533Z,96083.91
2023-10-26T13:05:16.484Z,96081.19
2023-10-26T13:07:43.481Z,96083.95
2023-10-26T13:10:10.636Z,96079.80
2023-10-26T13:12:38.004Z,96078.13
2023-10-26T13:15:06.054Z,96073.36
2023-10-26T13:17:34.541Z,96081.86
2023-10-26T13:20:01.698Z,96081.07
2023-10-26T13:22:28.781Z,96083.85
2023-10-26T13:24:55.872Z,96085.44
2023-10-26T13:27:22.814Z,96086.73
2023-10-26T13:29:50.440Z,96091.33
2023-10-26T13:32:17.431Z,96082.06
2023-10-26T13:34:44.640Z,96105.27
2023-10-26T13:37:11.740Z,96095.20
2023-10-26T13:39:38.823Z,96087.09
2023-10-26T13:42:05.884Z,96100.34
2023-10-26T13:44:32.901Z,96099.77
2023-10-26T13:46:59.838Z,96098.61
2023-10-26T13:49:26.840Z,96098.04
2023-10-26T13:51:53.786Z,96095.67
2023-10-26T13:54:20.922Z,96095.31
2023-10-26T13:56:48.298Z,96095.59
2023-10-26T13:59:15.380Z,96090.27
2023-10-26T14:01:42.403Z,96091.25
2023-10-26T14:04:09.574Z,96094.02
2023-10-26T14:06:36.917Z,96094.52
2023-10-26T14:09:04.864Z,96090.09
2023-10-26T14:11:32.767Z,96098.39
2023-10-26T14:14:00.131Z,96092.92
2023-10-26T14:16:29.026Z,96090.98
2023-10-26T14:18:58.396Z,96088.55
2023-10-26T14:21:25.408Z,96086.99
2023-10-26T14:23:52.397Z,96095.58
2023-10-26T14:26:19.452Z,96091.67
2023-10-26T14:28:48.930Z,96095.77
2023-10-26T14:31:18.813Z,96092.66
2023-10-26T14:33:45.898Z,96101.96
2023-10-26T14:36:12.944Z,96102.86
2023-10-26T14:38:39.912Z,96110.07
2023-10-26T14:41:06.864Z,96118.13
2023-10-26T14:43:33.890Z,96125.21
2023-10-26T14:46:00.998Z,96122.55
2023-10-26T14:48:27.938Z,96124.29
2023-10-26T14:50:59.982Z,96134.46
2023-10-26T14:53:27.148Z,96134.86
2023-10-26T14:55:54.448Z,96132.84
2023-10-26T14:58:23.040Z,96125.38
2023-10-26T15:00:51.581Z,96124.66
2023-10-26T15:03:18.597Z,96123.52
2023-10-26T15:05:46.174Z,96127.40
2023-10-26T15:08:13.316Z,96126.54
2023-10-26T15:10:51.370Z,96133.07
2023-10-26T15:13:20.027Z,96135.16
2023-10-26T15:15:48.655Z,96130.58
2023-10-26T15:18:15.669Z,96129.69
2023-10-26T15:20:42.681Z,96133.88
2023-10-26T15:23:10.540Z,96133.30
2023-10-26T15:25:37.775Z,96133.91
2023-10-26T15:28:04.929Z,96138.31
2023-10-26T15:30:32.061Z,96133.60
2023-10-26T15:32:59.201Z,96136.91
2023-10-26T15:35:27.961Z,96139.00
2023-10-26T15:37:55.183Z,96139.91
2023-10-26T15:40:22.280Z,96137.90
2023-10-26T15:42:49.300Z,96140.23
2023-10-26T15:45:16.472Z,96137.54
2023-10-26T15:47:44.862Z,96136.73
2023-10-26T15:50:12.285Z,96134.58
2023-10-26T15:52:39.257Z,96138.77
2023-10-26T15:55:06.913Z,96131.46
2023-10-26T15:57:34.310Z,96137.23
2023-10-26T16:00:01.548Z,96139.42
2023-10-26T16:02:28.652Z,96140.30
2023-10-26T16:04:55.689Z,96145.56
2023-10-26T16:07:22.611Z,96145.36
2023-10-26T16:09:49.631Z,96148.46
2023-10-26T16:12:17.082Z,96150.71
2023-10-26T16:14:44.419Z,96179.39
2023-10-26T16:17:11.599Z,96178.83
2023-10-26T16:19:38.535Z,96176.98
2023-10-26T16:22:05.971Z,96176.04
2023-10-26T16:24:33.321Z,96170.02
2023-10-26T16:27:00.377Z,96166.45
2023-10-26T16:29:27.316Z,96170.80
2023-10-26T16:31:54.307Z,96168.23
2023-10-26T16:34:21.255Z,96157.11
2023-10-26T16:36:48.281Z,96156.66
2023-10-26T16:39:15.384Z,96158.54
2023-10-26T16:41:42.420Z,96162.88
2023-10-26T16:44:09.377Z,96161.70
2023-10-26T16:46:36.489Z,96160.10
2023-10-26T16:49:03.511Z,96157.23
2023-10-26T16:51:30.523Z,96155.19
2023-10-26T16:53:57.875Z,96156.64
2023-10-26T16:56:27.710Z,96154.09
2023-10-26T16:58:55.649Z,96153.11
2023-10-26T17:01:24.145Z,96156.44
2023-10-26T17:03:51.131Z,96152.64
2023-10-26T17:06:18.208Z,96149.31
2023-10-26T17:08:45.127Z,96145.79
2023-10-26T17:11:12.212Z,96145.90
2023-10-26T17:13:39.149Z,96145.70
2023-10-26T17:16:06.715Z,96142.39
2023-10-26T17:18:33.707Z,96143.44
2023-10-26T17:21:02.001Z,96143.63
2023-10-26T17:23:29.135Z,96142.38
2023-10-26T17:25:56.342Z,96149.02
2023-10-26T17:28:23.299Z,96146.29
2023-10-26T17:30:50.584Z,96151.42
2023-10-26T17:33:18.850Z,96146.84
2023-10-26T17:35:49.265Z,96141.23
2023-10-26T17:38:16.565Z,96137.17
2023-10-26T17:40:46.269Z,96132.63
2023-10-26T17:43:13.934Z,96129.46
2023-10-26T17:45:41.196Z,96129.16
2023-10-26T17:48:09.581Z,96128.67
2023-10-26T17:50:43.331Z,96132.09
2023-10-26T17:53:10.253Z,96134.09
2023-10-26T17:55:37.582Z,96137.34
2023-10-26T17:58:04.590Z,96140.25
2023-10-26T18:00:31.617Z,96136.11
2023-10-26T18:02:58.567Z,96144.45
2023-10-26T18:05:25.577Z,96146.77
2023-10-26T18:07:53.829Z,96146.24
2023-10-26T18:10:21.594Z,96144.83
2023-10-26T18:12:48.893Z,96143.85
2023-10-26T18:15:15.941Z,96141.55
2023-10-26T18:17:42.994Z,96143.48
2023-10-26T18:20:10.611Z,96145.21
2023-10-26T18:22:37.565Z,96140.84
2023-10-26T18:25:05.060Z,96141.20
2023-10-26T18:27:32.595Z,96149.98
2023-10-26T18:29:59.663Z,96151.29
2023-10-26T18:32:26.808Z,96156.21
2023-10-26T18:34:53.744Z,96151.83
2023-10-26T18:37:22.322Z,96150.77
2023-10-26T18:39:54.597Z,96150.71
2023-10-26T18:42:22.518Z,96148.45
2023-10-26T18:44:50.158Z,96149.88
2023-10-26T18:47:17.308Z,96150.71
2023-10-26T18:49:44.567Z,96153.51
2023-10-26T18:52:11.654Z,96160.85
2023-10-26T18:54:38.788Z,96155.46
2023-10-26T18:57:05.968Z,96158.18
2023-10-26T18:59:33.083Z,96158.70
2023-10-26T19:02:01.548Z,96157.55
2023-10-26T19:04:28.736Z,96162.02
2023-10-26T19:06:55.854Z,96155.73
2023-10-26T19:09:22.822Z,96162.23
2023-10-26T19:11:49.835Z,96161.89
2023-10-26T19:14:16.769Z,96159.52
2023-10-26T19:16:44.065Z,96154.05
2023-10-26T19:19:11.288Z,96150.96
2023-10-26T19:21:38.329Z,96156.15
2023-10-26T19:24:06.067Z,96155.52
2023-10-26T19:26:33.096Z,96158.79
2023-10-26T19:29:00.065Z,96154.73
2023-10-26T19:31:27.039Z,96147.59
2023-10-26T19:33:54.039Z,96139.80
2023-10-26T19:36:21.124Z,96133.59
2023-10-26T19:38:48.158Z,96142.09
2023-10-26T19:41:18.536Z,96139.83
2023-10-26T19:43:45.585Z,96142.86
2023-10-26T19:46:12.751Z,96145.72
2023-10-26T19:48:40.081Z,96152.74
2023-10-26T19:51:07.236Z,96154.61
2023-10-26T19:53:37.063Z,96159.43
2023-10-26T19:56:04.682Z,96153.56
2023-10-26T19:58:31.854Z,96150.67
2023-10-26T20:00:58.857Z,96154.84
2023-10-26T20:03:25.948Z,96158.02
2023-10-26T20:05:52.927Z,96161.48
2023-10-26T20:08:19.922Z,96163.15
2023-10-26T20:10:47.512Z,96158.18
2023-10-26T20:13:14.670Z,96155.34
2023-10-26T20:15:41.742Z,96157.23
2023-10-26T20:18:11.987Z,96154.56
2023-10-26T20:20:39.102Z,96150.59
2023-10-26T20:23:06.465Z,96151.16
2023-10-26T20:25:33.809Z,96150.61
2023-10-26T20:28:01.425Z,96145.98
2023-10-26T20:30:28.755Z,96146.05
2023-10-26T20:32:57.758Z,96156.41
2023-10-26T20:35:24.902Z,96159.52
2023-10-26T20:37:52.006Z,96164.35
2023-10-26T20:40:19.155Z,96165.83
2023-10-26T20:42:46.760Z,96167.70
2023-10-26T20:45:14.254Z,96168.70
2023-10-26T20:47:41.387Z,96175.80
2023-10-26T20:50:08.822Z,96181.54
2023-10-26T20:52:35.797Z,96186.85
2023-10-26T20:55:03.045Z,96175.40
2023-10-26T20:57:30.009Z,96170.44
2023-10-26T20:59:57.002Z,96164.99
2023-10-26T21:02:24.033Z,96161.11
2023-10-26T21:04:51.520Z,96170.00
2023-10-26T21:07:18.548Z,96167.50
2023-10-26T21:09:45.808Z,96167.08
2023-10-26T21:12:13.084Z,96172.77
2023-10-26T21:14:40.122Z,96166.69
2023-10-26T21:17:07.073Z,96167.59
2023-10-26T21:19:34.018Z,96161.41
2023-10-26T21:22:01.973Z,96164.52
2023-10-26T21:24:28.931Z,96162.23
2023-10-26T21:26:55.903Z,96163.80
2023-10-26T21:29:23.049Z,96167.33
2023-10-26T21:31:50.024Z,96165.23
2023-10-26T21:34:17.132Z,96156.17
2023-10-26T21:36:44.455Z,96158.20
2023-10-26T21:39:11.936Z,96151.65
2023-10-26T21:41:40.093Z,96150.46
2023-10-26T21:44:07.450Z,96151.13
2023-10-26T21:46:34.442Z,96152.10
2023-10-26T21:49:01.838Z,96145.19
2023-10-26T21:51:28.846Z,96147.80
2023-10-26T21:53:55.828Z,96145.61
2023-10-26T21:56:22.769Z,96147.73
2023-10-26T21:58:51.388Z,96139.75
2023-10-26T22:01:19.504Z,96132.19
2023-10-26T22:03:56.676Z,96133.89
2023-10-26T22:06:33.748Z,96126.48
2023-10-26T22:09:00.840Z,96125.02
2023-10-26T22:11:28.238Z,96123.25
2023-10-26T22:13:55.287Z,96127.61
2023-10-26T22:16:22.736Z,96123.08
2023-10-26T22:18:49.873Z,96125.98
2023-10-26T22:21:17.036Z,96122.32
2023-10-26T22:23:44.045Z,96121.19
2023-10-26T22:26:11.005Z,96125.23
2023-10-26T22:28:37.913Z,96127.23
2023-10-26T22:31:09.694Z,96125.68
2023-10-26T22:33:38.478Z,96117.98
2023-10-26T22:36:10.404Z,96117.61
2023-10-26T22:38:37.471Z,96117.86
2023-10-26T22:41:09.310Z,96112.10
2023-10-26T22:43:36.380Z,96112.09
2023-10-26T22:46:03.607Z,96114.56
2023-10-26T22:48:31.312Z,96110.12
2023-10-26T22:51:01.519Z,96101.27
2023-10-26T22:53:28.484Z,96106.88
2023-10-26T22:55:55.505Z,96106.22
2023-10-26T22:58:22.557Z,96110.04
2023-10-26T23:00:49.740Z,96105.44
2023-10-26T23:03:16.968Z,96101.16
2023-10-26T23:05:44.456Z,96098.35
2023-10-26T23:08:12.273Z,96092.96
2023-10-26T23:10:39.283Z,96090.04
2023-10-26T23:13:06.389Z,96099.34
2023-10-26T23:15:33.445Z,96099.23
2023-10-26T23:18:00.585Z,96098.83
2023-10-26T23:20:27.743Z,96101.44
2023-10-26T23:22:59.084Z,96104.64
2023-10-26T23:25:26.215Z,96100.58
2023-10-26T23:27:53.242Z,96093.43
2023-10-26T23:30:20.573Z,96091.17
2023-10-26T23:32:47.905Z,96080.63
2023-10-26T23:35:15.168Z,96081.25
2023-10-26T23:37:42.188Z,96073.45
2023-10-26T23:40:11.171Z,96078.40
2023-10-26T23:42:38.238Z,96070.08
2023-10-26T23:45:05.672Z,96061.98
2023-10-26T23:47:32.683Z,96059.27
2023-10-26T23:49:59.829Z,96061.56
2023-10-26T23:52:26.871Z,96067.25
2023-10-26T23:54:54.425Z,96069.92
2023-10-26T23:57:21.586Z,96073.45
2023-10-26T23:59:48.650Z,96078.77
